createdAt,value
2018-06-20T00:00:24.187Z,3.37
2018-06-20T00:02:58.485Z,4.25
2018-06-20T00:05:32.892Z,3.83
2018-06-20T00:08:07.177Z,3.80
2018-06-20T00:10:41.531Z,3.75
2018-06-20T00:13:15.827Z,4.15
2018-06-20T00:15:50.290Z,4.17
2018-06-20T00:18:24.712Z,4.70
2018-06-20T00:20:58.949Z,4.35
2018-06-20T00:23:33.272Z,5.10
2018-06-20T00:26:07.696Z,5.53
2018-06-20T00:28:41.964Z,4.87
2018-06-20T00:31:16.258Z,5.03
2018-06-20T00:33:50.696Z,5.05
2018-06-20T00:36:25.185Z,4.20
2018-06-20T00:38:59.290Z,4.80
2018-06-20T00:41:33.624Z,4.22
2018-06-20T00:44:07.965Z,5.05
2018-06-20T00:46:42.372Z,5.10
2018-06-20T00:49:16.445Z,4.30
2018-06-20T00:51:50.943Z,5.22
2018-06-20T00:54:25.396Z,4.25
2018-06-20T00:56:59.863Z,4.65
2018-06-20T00:59:34.152Z,4.95
2018-06-20T01:02:08.432Z,4.47
2018-06-20T01:04:42.815Z,4.47
2018-06-20T01:07:17.203Z,4.10
2018-06-20T01:09:51.500Z,4.40
2018-06-20T01:12:25.954Z,4.37
2018-06-20T01:15:00.190Z,3.55
2018-06-20T01:17:34.593Z,3.85
2018-06-20T01:20:09.033Z,4.42
2018-06-20T01:22:43.355Z,4.35
2018-06-20T01:25:17.442Z,4.92
2018-06-20T01:27:51.906Z,5.25
2018-06-20T01:30:26.183Z,5.20
2018-06-20T01:33:00.466Z,5.22
2018-06-20T01:35:34.793Z,4.58
2018-06-20T01:38:09.231Z,4.22
2018-06-20T01:40:43.583Z,4.33
2018-06-20T01:43:17.758Z,3.50
2018-06-20T01:45:52.216Z,3.80
2018-06-20T01:48:26.578Z,3.75
2018-06-20T01:51:00.796Z,3.83
2018-06-20T01:53:35.244Z,4.50
2018-06-20T01:56:09.672Z,4.10
2018-06-20T01:58:43.938Z,4.85
2018-06-20T02:01:18.305Z,4.67
2018-06-20T02:03:52.629Z,4.35
2018-06-20T02:06:27.054Z,4.55
2018-06-20T02:09:01.378Z,4.20
2018-06-20T02:11:35.751Z,5.10
2018-06-20T02:14:10.055Z,5.03
2018-06-20T02:16:44.399Z,4.12
2018-06-20T02:19:18.682Z,4.62
2018-06-20T02:21:53.155Z,3.85
2018-06-20T02:24:27.354Z,4.05
2018-06-20T02:27:01.679Z,4.75
2018-06-20T02:29:35.935Z,5.55
2018-06-20T02:32:10.343Z,5.47
2018-06-20T02:34:44.944Z,5.97
2018-06-20T02:37:19.346Z,4.65
2018-06-20T02:39:53.711Z,4.17
2018-06-20T02:42:28.220Z,4.15
2018-06-20T02:45:02.638Z,4.33
2018-06-20T02:47:43.087Z,4.30
2018-06-20T02:50:17.434Z,4.10
2018-06-20T02:52:51.910Z,4.30
2018-06-20T02:55:26.073Z,4.22
2018-06-20T02:58:00.495Z,3.92
2018-06-20T03:00:34.903Z,4.05
2018-06-20T03:03:09.778Z,4.20
2018-06-20T03:05:44.118Z,3.45
2018-06-20T03:08:18.216Z,3.67
2018-06-20T03:10:52.634Z,3.60
2018-06-20T03:13:27.075Z,3.67
2018-06-20T03:16:01.562Z,3.00
2018-06-20T03:18:36.005Z,3.85
2018-06-20T03:21:10.419Z,3.65
2018-06-20T03:23:44.753Z,4.28
2018-06-20T03:26:19.058Z,3.30
2018-06-20T03:28:53.487Z,3.35
2018-06-20T03:31:28.340Z,6.17
2018-06-20T03:34:02.850Z,7.40
2018-06-20T03:36:37.182Z,4.60
2018-06-20T03:39:11.692Z,4.50
2018-06-20T03:41:45.984Z,3.95
2018-06-20T03:44:20.364Z,4.60
2018-06-20T03:46:54.418Z,3.92
2018-06-20T03:49:28.792Z,4.10
2018-06-20T03:52:03.182Z,3.85
2018-06-20T03:54:37.568Z,3.95
2018-06-20T03:57:11.960Z,4.55
2018-06-20T03:59:46.266Z,5.45
2018-06-20T04:02:20.655Z,4.85
2018-06-20T04:04:55.147Z,4.90
2018-06-20T04:07:29.456Z,5.05
2018-06-20T04:10:03.935Z,3.98
2018-06-20T04:12:38.500Z,4.90
2018-06-20T04:15:12.741Z,4.05
2018-06-20T04:17:47.066Z,3.90
2018-06-20T04:20:21.468Z,4.10
2018-06-20T04:22:55.809Z,3.70
2018-06-20T04:25:30.284Z,3.85
2018-06-20T04:28:04.624Z,4.83
2018-06-20T04:30:38.928Z,5.72
2018-06-20T04:33:13.225Z,4.80
2018-06-20T04:35:47.708Z,5.83
2018-06-20T04:38:22.029Z,5.70
2018-06-20T04:40:56.492Z,6.75
2018-06-20T04:43:30.797Z,5.30
2018-06-20T04:46:05.251Z,4.78
2018-06-20T04:48:39.631Z,4.60
2018-06-20T04:51:14.675Z,3.80
2018-06-20T04:53:48.920Z,5.42
2018-06-20T04:56:23.033Z,5.47
2018-06-20T04:58:57.414Z,4.80
2018-06-20T05:01:31.899Z,4.70
2018-06-20T05:04:06.087Z,5.00
2018-06-20T05:06:40.528Z,5.37
2018-06-20T05:09:18.027Z,5.25
2018-06-20T05:11:52.347Z,4.80
2018-06-20T05:14:26.644Z,4.25
2018-06-20T05:17:00.750Z,4.87
2018-06-20T05:19:35.337Z,4.90
2018-06-20T05:22:09.671Z,4.10
2018-06-20T05:24:44.051Z,4.83
2018-06-20T05:27:18.432Z,4.90
2018-06-20T05:29:52.801Z,4.20
2018-06-20T05:32:27.100Z,4.20
2018-06-20T05:35:01.475Z,4.50
2018-06-20T05:37:35.806Z,5.30
2018-06-20T05:40:10.703Z,5.78
2018-06-20T05:42:45.136Z,5.17
2018-06-20T05:45:19.508Z,5.25
2018-06-20T05:47:53.905Z,4.80
2018-06-20T05:50:28.291Z,4.40
2018-06-20T05:53:02.644Z,5.53
2018-06-20T05:55:37.630Z,4.90
2018-06-20T05:58:12.112Z,4.72
2018-06-20T06:00:46.593Z,4.78
2018-06-20T06:03:20.966Z,4.45
2018-06-20T06:06:06.738Z,4.30
2018-06-20T06:08:41.456Z,3.90
2018-06-20T06:11:15.963Z,4.55
2018-06-20T06:13:50.193Z,4.50
2018-06-20T06:16:24.562Z,3.67
2018-06-20T06:18:59.041Z,4.50
2018-06-20T06:21:33.578Z,4.40
2018-06-20T06:24:07.942Z,4.22
2018-06-20T06:26:42.334Z,4.58
2018-06-20T06:29:16.755Z,4.30
2018-06-20T06:31:51.137Z,4.47
2018-06-20T06:34:25.246Z,4.30
2018-06-20T06:36:59.638Z,6.10
2018-06-20T06:39:33.784Z,4.75
2018-06-20T06:42:08.070Z,4.65
2018-06-20T06:44:42.434Z,3.98
2018-06-20T06:47:16.689Z,3.98
2018-06-20T06:49:51.097Z,4.00
2018-06-20T06:52:25.571Z,4.10
2018-06-20T06:54:59.827Z,3.80
2018-06-20T06:57:34.124Z,4.05
2018-06-20T07:00:08.593Z,3.70
2018-06-20T07:02:43.039Z,3.77
2018-06-20T07:05:17.722Z,3.98
2018-06-20T07:07:52.196Z,3.95
2018-06-20T07:10:26.511Z,3.85
2018-06-20T07:13:00.793Z,4.25
2018-06-20T07:15:35.258Z,3.83
2018-06-20T07:18:09.508Z,4.12
2018-06-20T07:20:43.896Z,3.92
2018-06-20T07:23:18.372Z,3.92
2018-06-20T07:25:52.827Z,3.40
2018-06-20T07:28:27.223Z,3.95
2018-06-20T07:31:01.551Z,4.10
2018-06-20T07:33:35.648Z,3.70
2018-06-20T07:36:09.906Z,3.70
2018-06-20T07:38:44.380Z,3.98
2018-06-20T07:41:18.706Z,5.03
2018-06-20T07:43:53.027Z,4.78
2018-06-20T07:46:27.476Z,4.10
2018-06-20T07:49:01.726Z,3.75
2018-06-20T07:51:35.788Z,3.52
2018-06-20T07:54:10.106Z,3.58
2018-06-20T07:56:44.746Z,3.80
2018-06-20T07:59:19.140Z,3.00
2018-06-20T08:02:10.303Z,3.50
2018-06-20T08:04:50.255Z,2.47
2018-06-20T08:07:30.034Z,3.67
2018-06-20T08:10:09.909Z,3.20
2018-06-20T08:12:49.694Z,2.95
2018-06-20T08:15:29.353Z,3.40
2018-06-20T08:18:09.111Z,3.22
2018-06-20T08:20:43.480Z,3.00
2018-06-20T08:23:17.736Z,3.60
2018-06-20T08:25:52.189Z,3.10
2018-06-20T08:28:26.440Z,4.72
2018-06-20T08:31:00.516Z,4.72
2018-06-20T08:33:34.725Z,4.20
2018-06-20T08:36:09.141Z,4.08
2018-06-20T08:38:43.372Z,3.05
2018-06-20T08:41:17.787Z,2.72
2018-06-20T08:43:52.309Z,2.60
2018-06-20T08:46:26.596Z,2.60
2018-06-20T08:49:00.710Z,2.70
2018-06-20T08:51:35.171Z,3.33
2018-06-20T08:54:09.701Z,2.60
2018-06-20T08:56:43.958Z,2.52
2018-06-20T08:59:18.221Z,2.50
2018-06-20T09:01:52.654Z,2.60
2018-06-20T09:04:32.462Z,2.47
2018-06-20T09:07:12.258Z,2.40
2018-06-20T09:09:51.844Z,2.67
2018-06-20T09:12:31.690Z,2.98
2018-06-20T09:15:11.531Z,2.55
2018-06-20T09:17:51.029Z,2.55
2018-06-20T09:20:25.560Z,2.90
2018-06-20T09:22:59.621Z,2.92
2018-06-20T09:25:33.951Z,2.40
2018-06-20T09:28:08.319Z,2.62
2018-06-20T09:30:42.774Z,2.45
2018-06-20T09:33:16.934Z,3.15
2018-06-20T09:35:51.111Z,2.70
2018-06-20T09:38:25.463Z,2.75
2018-06-20T09:40:59.541Z,3.15
2018-06-20T09:43:33.787Z,2.60
2018-06-20T09:46:08.208Z,2.70
2018-06-20T09:48:42.510Z,2.60
2018-06-20T09:51:17.003Z,2.35
2018-06-20T09:53:51.337Z,2.27
2018-06-20T09:56:25.645Z,2.15
2018-06-20T09:59:05.609Z,2.55
2018-06-20T10:01:45.448Z,3.72
2018-06-20T10:04:24.955Z,3.30
2018-06-20T10:07:04.824Z,4.55
2018-06-20T10:09:44.641Z,2.95
2018-06-20T10:13:23.126Z,2.60
2018-06-20T10:15:57.447Z,2.58
2018-06-20T10:18:31.547Z,2.90
2018-06-20T10:21:05.907Z,3.15
2018-06-20T10:23:40.325Z,2.65
2018-06-20T10:26:14.480Z,2.60
2018-06-20T10:28:48.853Z,2.70
2018-06-20T10:31:22.932Z,2.85
2018-06-20T10:33:57.316Z,2.27
2018-06-20T10:36:31.808Z,2.70
2018-06-20T10:39:07.952Z,3.33
2018-06-20T10:41:42.214Z,3.95
2018-06-20T10:44:16.898Z,3.30
2018-06-20T10:46:56.841Z,3.42
2018-06-20T10:49:31.214Z,2.80
2018-06-20T10:52:05.747Z,2.75
2018-06-20T10:54:40.141Z,2.58
2018-06-20T10:57:19.942Z,2.85
2018-06-20T10:59:59.742Z,2.75
2018-06-20T11:02:39.940Z,3.12
2018-06-20T11:05:19.628Z,2.50
2018-06-20T11:07:59.355Z,2.30
2018-06-20T11:12:46.307Z,2.42
2018-06-20T11:15:20.466Z,3.10
2018-06-20T11:17:54.558Z,2.50
2018-06-20T11:20:34.326Z,2.60
2018-06-20T11:23:08.744Z,3.27
2018-06-20T11:25:43.079Z,2.90
2018-06-20T11:28:17.251Z,2.60
2018-06-20T11:30:51.667Z,2.50
2018-06-20T11:33:26.208Z,2.77
2018-06-20T11:36:00.714Z,2.52
2018-06-20T11:38:35.117Z,2.83
2018-06-20T11:41:09.639Z,2.58
2018-06-20T11:43:43.783Z,2.58
2018-06-20T11:46:23.553Z,3.35
2018-06-20T11:48:58.092Z,2.75
2018-06-20T11:51:32.570Z,4.08
2018-06-20T11:54:08.057Z,3.50
2018-06-20T11:56:42.424Z,5.97
2018-06-20T11:59:22.197Z,3.60
2018-06-20T12:02:01.827Z,2.60
2018-06-20T12:04:41.489Z,3.00
2018-06-20T12:07:21.138Z,2.33
2018-06-20T12:10:00.864Z,2.90
2018-06-20T12:12:40.567Z,2.37
2018-06-20T12:15:20.398Z,2.75
2018-06-20T12:18:00.227Z,2.77
2018-06-20T12:20:39.904Z,2.77
2018-06-20T12:23:19.644Z,2.87
2018-06-20T12:25:59.588Z,2.67
2018-06-20T12:28:39.055Z,2.33
2018-06-20T12:31:18.864Z,2.67
2018-06-20T12:33:58.501Z,2.35
2018-06-20T12:36:38.244Z,2.50
2018-06-20T12:39:11.840Z,2.42
2018-06-20T12:41:51.583Z,2.12
2018-06-20T12:44:30.111Z,2.60
2018-06-20T12:47:09.414Z,2.40
2018-06-20T12:49:50.869Z,2.42
2018-06-20T12:52:25.331Z,2.70
2018-06-20T12:54:59.734Z,2.45
2018-06-20T12:57:34.128Z,2.72
2018-06-20T13:00:08.627Z,2.67
2018-06-20T13:02:43.024Z,3.70
2018-06-20T13:05:17.573Z,3.50
2018-06-20T13:07:51.991Z,2.45
2018-06-20T13:10:26.426Z,2.15
2018-06-20T13:13:00.478Z,2.15
2018-06-20T13:15:34.946Z,2.17
2018-06-20T13:18:09.297Z,2.77
2018-06-20T13:20:43.812Z,2.27
2018-06-20T13:23:18.212Z,2.12
2018-06-20T13:25:52.626Z,2.25
2018-06-20T13:28:27.074Z,2.00
2018-06-20T13:32:04.473Z,1.87
2018-06-20T13:34:44.076Z,2.10
2018-06-20T13:37:23.808Z,2.40
2018-06-20T13:40:03.402Z,2.02
2018-06-20T13:42:43.028Z,1.90
2018-06-20T13:45:22.779Z,2.72
2018-06-20T13:48:02.296Z,2.95
2018-06-20T13:50:36.676Z,2.83
2018-06-20T13:53:10.741Z,2.10
2018-06-20T13:55:45.074Z,1.70
2018-06-20T13:58:19.175Z,2.20
2018-06-20T14:00:53.417Z,2.53
2018-06-20T14:03:27.603Z,2.27
2018-06-20T14:06:01.928Z,2.00
2018-06-20T14:08:36.340Z,2.40
2018-06-20T14:11:10.871Z,2.37
2018-06-20T14:13:45.172Z,1.90
2018-06-20T14:16:19.623Z,2.33
2018-06-20T14:18:53.886Z,1.90
2018-06-20T14:21:33.556Z,1.92
2018-06-20T14:24:09.035Z,1.93
2018-06-20T14:26:43.579Z,2.30
2018-06-20T14:29:17.834Z,2.20
2018-06-20T14:31:57.706Z,2.00
2018-06-20T14:34:37.345Z,1.77
2018-06-20T14:37:17.075Z,2.33
2018-06-20T14:39:56.884Z,2.30
2018-06-20T14:42:36.430Z,2.20
2018-06-20T14:45:16.308Z,2.40
2018-06-20T14:47:50.633Z,2.30
2018-06-20T14:50:25.177Z,2.63
2018-06-20T14:52:59.244Z,2.52
2018-06-20T14:55:33.588Z,2.47
2018-06-20T14:58:07.937Z,1.80
2018-06-20T15:00:42.242Z,2.20
2018-06-20T15:03:16.728Z,2.00
2018-06-20T15:05:51.127Z,1.90
2018-06-20T15:08:25.403Z,1.73
2018-06-20T15:10:59.785Z,2.10
2018-06-20T15:13:33.803Z,2.27
2018-06-20T15:16:13.855Z,1.70
2018-06-20T15:18:48.182Z,1.60
2018-06-20T15:21:22.553Z,2.20
2018-06-20T15:23:56.853Z,2.00
2018-06-20T15:26:36.817Z,1.70
2018-06-20T15:29:16.704Z,1.90
2018-06-20T15:31:56.601Z,2.00
2018-06-20T15:34:36.186Z,1.60
2018-06-20T15:37:16.007Z,1.77
2018-06-20T15:39:50.443Z,1.87
2018-06-20T15:42:24.882Z,2.20
2018-06-20T15:44:59.301Z,1.60
2018-06-20T15:47:33.811Z,2.00
2018-06-20T15:50:07.935Z,3.17
2018-06-20T15:52:42.346Z,2.75
2018-06-20T15:55:16.695Z,2.20
2018-06-20T15:57:50.689Z,1.80
2018-06-20T16:00:25.259Z,1.85
2018-06-20T16:02:59.687Z,1.83
2018-06-20T16:05:34.061Z,1.70
2018-06-20T16:08:08.142Z,1.90
2018-06-20T16:10:42.479Z,1.80
2018-06-20T16:13:16.732Z,1.67
2018-06-20T16:15:51.284Z,1.57
2018-06-20T16:18:25.419Z,1.30
2018-06-20T16:21:05.180Z,1.50
2018-06-20T16:23:45.081Z,1.57
2018-06-20T16:26:24.938Z,1.63
2018-06-20T16:29:04.680Z,1.50
2018-06-20T16:31:39.382Z,1.50
2018-06-20T16:34:13.777Z,1.50
2018-06-20T16:36:48.221Z,1.37
2018-06-20T16:39:22.705Z,1.27
2018-06-20T16:41:57.135Z,1.37
2018-06-20T16:44:31.777Z,1.50
2018-06-20T16:47:06.195Z,1.30
2018-06-20T16:49:40.286Z,1.47
2018-06-20T16:52:14.503Z,1.67
2018-06-20T16:54:48.905Z,2.40
2018-06-20T16:57:23.250Z,2.80
2018-06-20T16:59:57.545Z,2.33
2018-06-20T17:02:34.872Z,2.07
2018-06-20T17:05:09.592Z,2.40
2018-06-20T17:07:43.901Z,1.60
2018-06-20T17:10:20.674Z,1.67
2018-06-20T17:13:00.584Z,1.53
2018-06-20T17:15:40.337Z,1.57
2018-06-20T17:18:20.171Z,1.37
2018-06-20T17:21:00.008Z,1.20
2018-06-20T17:23:39.962Z,1.40
2018-06-20T17:26:14.344Z,1.57
2018-06-20T17:28:48.674Z,1.30
2018-06-20T17:31:23.028Z,1.23
2018-06-20T17:33:57.383Z,1.50
2018-06-20T17:36:31.909Z,1.47
2018-06-20T17:39:07.664Z,1.37
2018-06-20T17:41:42.070Z,1.30
2018-06-20T17:44:16.092Z,1.53
2018-06-20T17:46:50.483Z,1.57
2018-06-20T17:49:24.911Z,1.80
2018-06-20T17:51:59.142Z,1.40
2018-06-20T17:54:33.581Z,1.77
2018-06-20T17:57:07.980Z,2.10
2018-06-20T17:59:42.333Z,2.20
2018-06-20T18:02:16.691Z,2.87
2018-06-20T18:04:56.471Z,2.80
2018-06-20T18:07:36.263Z,3.37
2018-06-20T18:10:16.099Z,3.00
2018-06-20T18:12:53.385Z,2.47
2018-06-20T18:15:33.764Z,2.70
2018-06-20T18:18:08.084Z,2.80
2018-06-20T18:20:42.576Z,2.27
2018-06-20T18:23:16.895Z,2.70
2018-06-20T18:25:51.216Z,2.83
2018-06-20T18:28:25.553Z,2.80
2018-06-20T18:30:59.874Z,2.60
2018-06-20T18:33:34.318Z,2.77
2018-06-20T18:36:08.422Z,2.70
2018-06-20T18:38:42.747Z,2.70
2018-06-20T18:41:17.139Z,2.70
2018-06-20T18:43:51.542Z,2.40
2018-06-20T18:46:25.702Z,2.60
2018-06-20T18:49:00.081Z,2.95
2018-06-20T18:51:34.252Z,3.00
2018-06-20T18:54:08.462Z,2.27
2018-06-20T18:56:42.922Z,3.00
2018-06-20T18:59:22.599Z,2.55
2018-06-20T19:02:02.241Z,3.00
2018-06-20T19:04:42.057Z,2.40
2018-06-20T19:08:22.624Z,2.80
2018-06-20T19:10:57.023Z,3.08
2018-06-20T19:13:31.464Z,2.70
2018-06-20T19:16:05.527Z,2.77
2018-06-20T19:18:39.845Z,2.80
2018-06-20T19:21:14.165Z,3.08
2018-06-20T19:23:48.580Z,3.00
2018-06-20T19:26:23.090Z,3.15
2018-06-20T19:28:57.340Z,3.35
2018-06-20T19:31:31.674Z,3.10
2018-06-20T19:34:06.122Z,3.45
2018-06-20T19:36:40.254Z,3.92
2018-06-20T19:39:20.165Z,3.72
2018-06-20T19:41:54.130Z,3.60
2018-06-20T19:44:33.071Z,3.37
2018-06-20T19:47:07.197Z,3.70
2018-06-20T19:49:41.473Z,6.67
2018-06-20T19:52:15.826Z,5.42
2018-06-20T19:54:49.923Z,7.03
2018-06-20T19:57:24.200Z,5.10
2018-06-20T19:59:58.433Z,4.83
2018-06-20T20:02:32.900Z,4.53
2018-06-20T20:05:07.205Z,4.95
2018-06-20T20:07:41.501Z,4.87
2018-06-20T20:10:15.702Z,4.40
2018-06-20T20:12:50.022Z,4.90
2018-06-20T20:15:24.315Z,5.00
2018-06-20T20:17:58.348Z,5.03
2018-06-20T20:20:32.665Z,4.95
2018-06-20T20:23:07.138Z,4.80
2018-06-20T20:25:41.483Z,5.15
2018-06-20T20:28:15.632Z,4.90
2018-06-20T20:30:49.932Z,4.50
2018-06-20T20:33:24.302Z,5.20
2018-06-20T20:35:58.591Z,5.08
2018-06-20T20:38:32.861Z,5.05
2018-06-20T20:41:07.205Z,5.45
2018-06-20T20:43:41.542Z,5.47
2018-06-20T20:46:16.154Z,5.50
2018-06-20T20:48:50.471Z,6.12
2018-06-20T20:51:24.492Z,6.92
2018-06-20T20:53:59.000Z,7.40
2018-06-20T20:56:33.438Z,8.78
2018-06-20T20:59:07.845Z,10.72
2018-06-20T21:01:42.208Z,5.47
2018-06-20T21:04:16.265Z,5.47
2018-06-20T21:06:50.825Z,5.80
2018-06-20T21:09:25.141Z,5.00
2018-06-20T21:11:59.386Z,4.60
2018-06-20T21:14:33.750Z,4.75
2018-06-20T21:17:08.081Z,5.00
2018-06-20T21:19:42.162Z,5.53
2018-06-20T21:22:16.448Z,4.78
2018-06-20T21:24:50.758Z,5.15
2018-06-20T21:27:25.146Z,5.70
2018-06-20T21:29:59.521Z,5.25
2018-06-20T21:32:34.011Z,5.40
2018-06-20T21:35:08.170Z,5.15
2018-06-20T21:37:42.410Z,5.58
2018-06-20T21:40:16.858Z,5.53
2018-06-20T21:42:50.939Z,5.55
2018-06-20T21:45:25.234Z,5.60
2018-06-20T21:47:59.661Z,5.45
2018-06-20T21:50:33.963Z,5.20
2018-06-20T21:53:08.171Z,5.75
2018-06-20T21:55:42.727Z,6.75
2018-06-20T21:58:16.998Z,6.00
2018-06-20T22:00:51.301Z,6.65
2018-06-20T22:03:26.527Z,5.08
2018-06-20T22:06:00.894Z,5.78
2018-06-20T22:08:35.359Z,5.05
2018-06-20T22:11:09.538Z,5.05
2018-06-20T22:13:43.826Z,5.33
2018-06-20T22:16:18.250Z,5.55
2018-06-20T22:18:52.404Z,5.85
2018-06-20T22:21:26.812Z,5.00
2018-06-20T22:24:01.102Z,5.40
2018-06-20T22:26:35.540Z,5.75
2018-06-20T22:29:09.834Z,5.42
2018-06-20T22:31:44.356Z,6.00
2018-06-20T22:34:18.659Z,6.05
2018-06-20T22:36:52.744Z,5.12
2018-06-20T22:39:27.124Z,5.40
2018-06-20T22:42:01.306Z,5.65
2018-06-20T22:44:35.664Z,5.70
2018-06-20T22:47:09.884Z,5.55
2018-06-20T22:49:44.158Z,5.65
2018-06-20T22:52:18.543Z,5.53
2018-06-20T22:54:52.854Z,5.83
2018-06-20T22:57:27.238Z,6.78
2018-06-20T23:00:01.717Z,7.10
2018-06-20T23:02:36.131Z,8.85
2018-06-20T23:05:10.544Z,6.25
2018-06-20T23:07:44.755Z,6.40
2018-06-20T23:10:19.104Z,6.12
2018-06-20T23:12:53.407Z,6.47
2018-06-20T23:15:28.012Z,6.22
2018-06-20T23:18:02.234Z,6.10
2018-06-20T23:20:36.687Z,6.17
2018-06-20T23:23:10.866Z,5.53
2018-06-20T23:25:45.044Z,5.85
2018-06-20T23:28:19.514Z,6.33
2018-06-20T23:30:53.782Z,6.92
2018-06-20T23:33:28.158Z,6.15
2018-06-20T23:36:02.440Z,6.30
2018-06-20T23:38:36.784Z,6.75
2018-06-20T23:41:11.077Z,5.58
2018-06-20T23:43:45.359Z,5.92
2018-06-20T23:46:19.716Z,5.78
2018-06-20T23:48:54.221Z,6.58
2018-06-20T23:51:28.799Z,6.40
2018-06-20T23:54:03.053Z,6.10
2018-06-20T23:56:37.499Z,6.12
2018-06-20T23:59:11.883Z,6.87
